createdAt,value
2023-03-30T00:00:35.324Z,88660.00
2023-03-30T00:01:35.282Z,88662.00
2023-03-30T00:02:35.343Z,88658.00
2023-03-30T00:03:35.404Z,88660.00
2023-03-30T00:04:35.386Z,88658.00
2023-03-30T00:05:35.299Z,88656.00
2023-03-30T00:06:35.293Z,88656.00
2023-03-30T00:07:35.269Z,88660.00
2023-03-30T00:08:35.280Z,88658.00
2023-03-30T00:09:35.209Z,88658.00
2023-03-30T00:10:35.181Z,88652.00
2023-03-30T00:11:35.151Z,88648.00
2023-03-30T00:12:35.116Z,88648.00
2023-03-30T00:13:35.114Z,88644.00
2023-03-30T00:14:35.074Z,88644.00
2023-03-30T00:15:35.058Z,88644.00
2023-03-30T00:16:35.095Z,88650.00
2023-03-30T00:17:35.027Z,88652.00
2023-03-30T00:18:34.994Z,88652.00
2023-03-30T00:19:34.951Z,88652.00
2023-03-30T00:20:34.947Z,88652.00
2023-03-30T00:21:34.914Z,88654.00
2023-03-30T00:22:34.893Z,88656.00
2023-03-30T00:23:34.887Z,88648.00
2023-03-30T00:24:34.846Z,88646.00
2023-03-30T00:25:34.823Z,88646.00
2023-03-30T00:26:34.831Z,88650.00
2023-03-30T00:27:34.846Z,88650.00
2023-03-30T00:28:34.898Z,88648.00
2023-03-30T00:29:34.891Z,88648.00
2023-03-30T00:30:34.875Z,88650.00
2023-03-30T00:31:34.892Z,88648.00
2023-03-30T00:32:34.886Z,88644.00
2023-03-30T00:33:45.646Z,88646.00
2023-03-30T00:34:35.800Z,88642.00
2023-03-30T00:35:34.808Z,88634.00
2023-03-30T00:36:34.760Z,88634.00
2023-03-30T00:37:34.727Z,88636.00
2023-03-30T00:38:34.743Z,88636.00
2023-03-30T00:39:34.691Z,88633.00
2023-03-30T00:40:34.706Z,88631.00
2023-03-30T00:41:34.646Z,88633.00
2023-03-30T00:42:34.638Z,88638.00
2023-03-30T00:43:34.622Z,88634.00
2023-03-30T00:44:34.593Z,88633.00
2023-03-30T00:45:34.575Z,88629.00
2023-03-30T00:46:34.598Z,88631.00
2023-03-30T00:47:34.546Z,88625.00
2023-03-30T00:48:34.594Z,88621.00
2023-03-30T00:49:34.466Z,88627.00
2023-03-30T00:50:34.441Z,88625.00
2023-03-30T00:51:34.410Z,88623.00
2023-03-30T00:52:34.384Z,88629.00
2023-03-30T00:53:34.361Z,88629.00
2023-03-30T00:54:34.346Z,88625.00
2023-03-30T00:55:34.341Z,88623.00
2023-03-30T00:56:34.294Z,88623.00
2023-03-30T00:57:34.260Z,88619.00
2023-03-30T00:58:34.248Z,88623.00
2023-03-30T00:59:34.228Z,88615.00
2023-03-30T01:00:34.198Z,88625.00
2023-03-30T01:01:34.229Z,88625.00
2023-03-30T01:02:34.331Z,88625.00
2023-03-30T01:03:34.216Z,88619.00
2023-03-30T01:04:34.103Z,88623.00
2023-03-30T01:05:34.096Z,88623.00
2023-03-30T01:06:34.068Z,88615.00
2023-03-30T01:07:34.056Z,88617.00
2023-03-30T01:08:34.040Z,88615.00
2023-03-30T01:09:34.005Z,88611.00
2023-03-30T01:10:33.974Z,88607.00
2023-03-30T01:11:33.949Z,88609.00
2023-03-30T01:12:33.932Z,88611.00
2023-03-30T01:13:33.909Z,88607.00
2023-03-30T01:14:33.913Z,88609.00
2023-03-30T01:15:33.909Z,88611.00
2023-03-30T01:16:33.851Z,88611.00
2023-03-30T01:17:33.851Z,88615.00
2023-03-30T01:18:33.796Z,88611.00
2023-03-30T01:19:33.789Z,88607.00
2023-03-30T01:20:33.773Z,88609.00
2023-03-30T01:21:33.757Z,88613.00
2023-03-30T01:22:33.718Z,88609.00
2023-03-30T01:23:33.699Z,88605.00
2023-03-30T01:24:33.701Z,88607.00
2023-03-30T01:25:33.657Z,88605.00
2023-03-30T01:26:33.657Z,88609.00
2023-03-30T01:27:33.634Z,88605.00
2023-03-30T01:28:33.609Z,88603.00
2023-03-30T01:29:33.608Z,88605.00
2023-03-30T01:30:33.572Z,88609.00
2023-03-30T01:31:33.589Z,88603.00
2023-03-30T01:32:33.589Z,88605.00
2023-03-30T01:33:33.517Z,88599.00
2023-03-30T01:34:33.501Z,88603.00
2023-03-30T01:35:33.568Z,88599.00
2023-03-30T01:36:33.452Z,88597.00
2023-03-30T01:37:33.437Z,88597.00
2023-03-30T01:38:33.413Z,88603.00
2023-03-30T01:39:33.394Z,88599.00
2023-03-30T01:40:33.380Z,88605.00
2023-03-30T01:41:33.346Z,88609.00
2023-03-30T01:42:33.320Z,88607.00
2023-03-30T01:43:33.326Z,88607.00
2023-03-30T01:44:33.350Z,88613.00
2023-03-30T01:45:33.341Z,88601.00
2023-03-30T01:46:33.339Z,88613.00
2023-03-30T01:47:33.371Z,88603.00
2023-03-30T01:48:33.306Z,88599.00
2023-03-30T01:49:33.301Z,88605.00
2023-03-30T01:50:33.303Z,88607.00
2023-03-30T01:51:33.288Z,88607.00
2023-03-30T01:52:33.291Z,88611.00
2023-03-30T01:53:33.264Z,88611.00
2023-03-30T01:54:33.257Z,88611.00
2023-03-30T01:55:33.234Z,88611.00
2023-03-30T01:56:33.229Z,88615.00
2023-03-30T01:57:33.227Z,88615.00
2023-03-30T01:58:33.212Z,88609.00
2023-03-30T01:59:33.211Z,88607.00
2023-03-30T02:00:33.195Z,88601.00
2023-03-30T02:01:33.253Z,88603.00
2023-03-30T02:02:33.260Z,88601.00
2023-03-30T02:03:33.309Z,88601.00
2023-03-30T02:04:33.184Z,88603.00
2023-03-30T02:05:33.163Z,88605.00
2023-03-30T02:06:33.162Z,88613.00
2023-03-30T02:07:33.133Z,88607.00
2023-03-30T02:08:33.120Z,88611.00
2023-03-30T02:09:33.096Z,88611.00
2023-03-30T02:10:33.078Z,88611.00
2023-03-30T02:11:33.065Z,88613.00
2023-03-30T02:12:33.070Z,88611.00
2023-03-30T02:13:33.024Z,88611.00
2023-03-30T02:14:32.999Z,88607.00
2023-03-30T02:15:32.991Z,88605.00
2023-03-30T02:16:33.000Z,88605.00
2023-03-30T02:17:32.935Z,88603.00
2023-03-30T02:18:32.897Z,88601.00
2023-03-30T02:19:32.884Z,88607.00
2023-03-30T02:20:32.872Z,88601.00
2023-03-30T02:21:32.838Z,88603.00
2023-03-30T02:22:32.838Z,88603.00
2023-03-30T02:23:32.806Z,88607.00
2023-03-30T02:24:32.779Z,88605.00
2023-03-30T02:25:32.785Z,88605.00
2023-03-30T02:26:32.739Z,88601.00
2023-03-30T02:27:32.728Z,88601.00
2023-03-30T02:28:32.684Z,88601.00
2023-03-30T02:29:32.704Z,88603.00
2023-03-30T02:30:32.653Z,88599.00
2023-03-30T02:31:32.652Z,88599.00
2023-03-30T02:32:32.656Z,88603.00
2023-03-30T02:33:32.587Z,88599.00
2023-03-30T02:34:32.559Z,88599.00
2023-03-30T02:35:32.571Z,88603.00
2023-03-30T02:36:32.532Z,88599.00
2023-03-30T02:37:32.520Z,88603.00
2023-03-30T02:38:32.532Z,88599.00
2023-03-30T02:39:32.490Z,88593.00
2023-03-30T02:40:32.453Z,88599.00
2023-03-30T02:41:32.435Z,88597.00
2023-03-30T02:42:32.428Z,88593.00
2023-03-30T02:43:32.406Z,88593.00
2023-03-30T02:44:32.367Z,88599.00
2023-03-30T02:45:32.372Z,88597.00
2023-03-30T02:46:32.341Z,88595.00
2023-03-30T02:47:32.440Z,88597.00
2023-03-30T02:48:32.314Z,88597.00
2023-03-30T02:49:32.306Z,88595.00
2023-03-30T02:50:32.296Z,88593.00
2023-03-30T02:51:32.269Z,88595.00
2023-03-30T02:52:32.275Z,88591.00
2023-03-30T02:53:32.239Z,88593.00
2023-03-30T02:54:32.236Z,88591.00
2023-03-30T02:55:32.231Z,88589.00
2023-03-30T02:56:32.212Z,88591.00
2023-03-30T02:57:32.187Z,88589.00
2023-03-30T02:58:32.172Z,88589.00
2023-03-30T02:59:32.152Z,88591.00
2023-03-30T03:00:32.143Z,88584.00
2023-03-30T03:01:32.134Z,88582.00
2023-03-30T03:02:32.172Z,88584.00
2023-03-30T03:03:32.208Z,88578.00
2023-03-30T03:04:32.058Z,88578.00
2023-03-30T03:05:32.039Z,88582.00
2023-03-30T03:06:32.009Z,88572.00
2023-03-30T03:07:31.991Z,88572.00
2023-03-30T03:08:31.964Z,88572.00
2023-03-30T03:09:31.932Z,88574.00
2023-03-30T03:10:31.925Z,88578.00
2023-03-30T03:11:31.894Z,88578.00
2023-03-30T03:12:31.874Z,88570.00
2023-03-30T03:13:31.849Z,88574.00
2023-03-30T03:14:31.834Z,88572.00
2023-03-30T03:15:31.803Z,88570.00
2023-03-30T03:16:31.866Z,88568.00
2023-03-30T03:17:31.791Z,88570.00
2023-03-30T03:18:31.739Z,88572.00
2023-03-30T03:19:31.724Z,88570.00
2023-03-30T03:20:31.703Z,88570.00
2023-03-30T03:21:31.691Z,88568.00
2023-03-30T03:22:31.642Z,88568.00
2023-03-30T03:23:31.614Z,88566.00
2023-03-30T03:24:31.596Z,88568.00
2023-03-30T03:25:31.576Z,88564.00
2023-03-30T03:26:31.558Z,88560.00
2023-03-30T03:27:31.567Z,88564.00
2023-03-30T03:28:31.521Z,88568.00
2023-03-30T03:29:31.506Z,88568.00
2023-03-30T03:30:31.477Z,88566.00
2023-03-30T03:31:31.510Z,88566.00
2023-03-30T03:32:31.474Z,88566.00
2023-03-30T03:33:31.406Z,88560.00
2023-03-30T03:34:31.426Z,88560.00
2023-03-30T03:35:31.505Z,88552.00
2023-03-30T03:36:31.343Z,88548.00
2023-03-30T03:37:31.325Z,88548.00
2023-03-30T03:38:31.290Z,88548.00
2023-03-30T03:39:31.286Z,88544.00
2023-03-30T03:40:31.255Z,88540.00
2023-03-30T03:41:31.238Z,88536.00
2023-03-30T03:42:31.198Z,88540.00
2023-03-30T03:43:31.183Z,88540.00
2023-03-30T03:44:31.161Z,88534.00
2023-03-30T03:45:31.138Z,88536.00
2023-03-30T03:46:31.174Z,88536.00
2023-03-30T03:47:31.109Z,88540.00
2023-03-30T03:48:31.075Z,88532.00
2023-03-30T03:49:31.053Z,88534.00
2023-03-30T03:50:31.030Z,88534.00
2023-03-30T03:51:31.006Z,88532.00
2023-03-30T03:52:30.981Z,88531.00
2023-03-30T03:53:30.955Z,88531.00
2023-03-30T03:54:30.941Z,88529.00
2023-03-30T03:55:30.914Z,88523.00
2023-03-30T03:56:30.885Z,88529.00
2023-03-30T03:57:30.934Z,88527.00
2023-03-30T03:58:30.837Z,88525.00
2023-03-30T03:59:30.811Z,88525.00
2023-03-30T04:00:30.794Z,88519.00
2023-03-30T04:01:30.764Z,88523.00
2023-03-30T04:02:30.824Z,88519.00
2023-03-30T04:03:30.828Z,88517.00
2023-03-30T04:04:30.750Z,88517.00
2023-03-30T04:05:30.681Z,88517.00
2023-03-30T04:06:30.670Z,88515.00
2023-03-30T04:07:30.650Z,88513.00
2023-03-30T04:08:30.742Z,88515.00
2023-03-30T04:09:30.606Z,88519.00
2023-03-30T04:10:30.592Z,88519.00
2023-03-30T04:11:30.557Z,88519.00
2023-03-30T04:12:30.534Z,88519.00
2023-03-30T04:13:30.520Z,88511.00
2023-03-30T04:14:30.493Z,88511.00
2023-03-30T04:15:30.459Z,88517.00
2023-03-30T04:16:30.568Z,88517.00
2023-03-30T04:17:30.443Z,88517.00
2023-03-30T04:18:30.395Z,88517.00
2023-03-30T04:19:30.384Z,88519.00
2023-03-30T04:20:30.386Z,88515.00
2023-03-30T04:21:30.349Z,88511.00
2023-03-30T04:22:30.314Z,88513.00
2023-03-30T04:23:30.301Z,88511.00
2023-03-30T04:24:30.270Z,88501.00
2023-03-30T04:25:30.268Z,88497.00
2023-03-30T04:26:30.285Z,88497.00
2023-03-30T04:27:30.205Z,88493.00
2023-03-30T04:28:30.193Z,88489.00
2023-03-30T04:29:30.173Z,88485.00
2023-03-30T04:30:30.146Z,88474.00
2023-03-30T04:31:30.155Z,88466.00
2023-03-30T04:32:30.123Z,88468.00
2023-03-30T04:33:30.079Z,88468.00
2023-03-30T04:34:30.070Z,88468.00
2023-03-30T04:35:30.104Z,88472.00
2023-03-30T04:36:30.017Z,88476.00
2023-03-30T04:37:29.969Z,88472.00
2023-03-30T04:38:29.935Z,88468.00
2023-03-30T04:39:29.926Z,88470.00
2023-03-30T04:40:29.898Z,88474.00
2023-03-30T04:41:29.872Z,88474.00
2023-03-30T04:42:29.855Z,88472.00
2023-03-30T04:43:29.829Z,88474.00
2023-03-30T04:44:29.809Z,88478.00
2023-03-30T04:45:29.819Z,88487.00
2023-03-30T04:46:29.758Z,88485.00
2023-03-30T04:47:29.754Z,88487.00
2023-03-30T04:48:29.750Z,88487.00
2023-03-30T04:49:29.699Z,88485.00
2023-03-30T04:50:29.667Z,88478.00
2023-03-30T04:51:29.649Z,88478.00
2023-03-30T04:52:29.611Z,88478.00
2023-03-30T04:53:29.593Z,88485.00
2023-03-30T04:54:32.017Z,88478.00
2023-03-30T04:55:29.541Z,88491.00
2023-03-30T04:56:29.505Z,88491.00
2023-03-30T04:57:29.493Z,88491.00
2023-03-30T04:58:29.463Z,88491.00
2023-03-30T04:59:29.461Z,88493.00
2023-03-30T05:00:29.420Z,88493.00
2023-03-30T05:01:29.470Z,88497.00
2023-03-30T05:02:29.426Z,88497.00
2023-03-30T05:03:29.501Z,88493.00
2023-03-30T05:04:29.304Z,88493.00
2023-03-30T05:05:29.298Z,88493.00
2023-03-30T05:06:29.252Z,88493.00
2023-03-30T05:07:29.222Z,88489.00
2023-03-30T05:08:29.187Z,88493.00
2023-03-30T05:09:29.178Z,88497.00
2023-03-30T05:10:29.151Z,88495.00
2023-03-30T05:11:29.120Z,88493.00
2023-03-30T05:12:29.155Z,88491.00
2023-03-30T05:13:29.131Z,88489.00
2023-03-30T05:14:29.071Z,88493.00
2023-03-30T05:15:29.065Z,88489.00
2023-03-30T05:16:29.095Z,88499.00
2023-03-30T05:17:29.054Z,88499.00
2023-03-30T05:18:29.092Z,88493.00
2023-03-30T05:19:28.999Z,88499.00
2023-03-30T05:20:28.987Z,88491.00
2023-03-30T05:21:28.981Z,88491.00
2023-03-30T05:22:28.956Z,88495.00
2023-03-30T05:23:29.013Z,88497.00
2023-03-30T05:24:28.896Z,88495.00
2023-03-30T05:25:28.871Z,88489.00
2023-03-30T05:26:28.878Z,88497.00
2023-03-30T05:27:28.832Z,88478.00
2023-03-30T05:28:30.450Z,88485.00
2023-03-30T05:29:28.788Z,88474.00
2023-03-30T05:30:28.766Z,88476.00
2023-03-30T05:31:28.752Z,88474.00
2023-03-30T05:32:28.706Z,88464.00
2023-03-30T05:33:28.675Z,88470.00
2023-03-30T05:34:28.650Z,88466.00
2023-03-30T05:35:28.632Z,88466.00
2023-03-30T05:36:28.608Z,88476.00
2023-03-30T05:37:28.602Z,88468.00
2023-03-30T05:38:28.578Z,88464.00
2023-03-30T05:39:28.530Z,88464.00
2023-03-30T05:40:28.525Z,88468.00
2023-03-30T05:41:28.487Z,88478.00
2023-03-30T05:42:28.442Z,88472.00
2023-03-30T05:43:28.418Z,88472.00
2023-03-30T05:44:28.394Z,88470.00
2023-03-30T05:45:28.347Z,88468.00
2023-03-30T05:46:28.382Z,88474.00
2023-03-30T05:47:28.362Z,88470.00
2023-03-30T05:48:28.250Z,88478.00
2023-03-30T05:49:28.217Z,88476.00
2023-03-30T05:50:28.235Z,88491.00
2023-03-30T05:51:28.159Z,88476.00
2023-03-30T05:52:28.138Z,88495.00
2023-03-30T05:53:28.175Z,88499.00
2023-03-30T05:54:28.110Z,88493.00
2023-03-30T05:55:28.026Z,88501.00
2023-03-30T05:56:27.986Z,88499.00
2023-03-30T05:57:28.053Z,88503.00
2023-03-30T05:58:27.959Z,88499.00
2023-03-30T05:59:27.905Z,88509.00
2023-03-30T06:00:27.925Z,88501.00
2023-03-30T06:01:27.847Z,88505.00
2023-03-30T06:02:27.906Z,88499.00
2023-03-30T06:03:27.855Z,88507.00
2023-03-30T06:04:27.867Z,88517.00
2023-03-30T06:05:27.762Z,88515.00
2023-03-30T06:06:27.849Z,88511.00
2023-03-30T06:07:27.713Z,88515.00
2023-03-30T06:08:27.679Z,88515.00
2023-03-30T06:09:27.636Z,88515.00
2023-03-30T06:10:27.634Z,88515.00
2023-03-30T06:11:27.604Z,88515.00
2023-03-30T06:12:27.584Z,88515.00
2023-03-30T06:13:27.542Z,88515.00
2023-03-30T06:14:27.544Z,88521.00
2023-03-30T06:15:27.545Z,88517.00
2023-03-30T06:16:27.531Z,88515.00
2023-03-30T06:17:27.500Z,88521.00
2023-03-30T06:18:27.452Z,88519.00
2023-03-30T06:19:27.446Z,88521.00
2023-03-30T06:20:27.418Z,88523.00
2023-03-30T06:21:27.380Z,88531.00
2023-03-30T06:22:28.391Z,88517.00
2023-03-30T06:23:27.504Z,88521.00
2023-03-30T06:24:27.487Z,88521.00
2023-03-30T06:25:27.486Z,88519.00
2023-03-30T06:26:27.456Z,88525.00
2023-03-30T06:27:27.447Z,88517.00
2023-03-30T06:28:27.413Z,88519.00
2023-03-30T06:29:27.388Z,88531.00
2023-03-30T06:30:27.411Z,88513.00
2023-03-30T06:31:27.366Z,88519.00
2023-03-30T06:32:27.356Z,88523.00
2023-03-30T06:33:27.261Z,88519.00
2023-03-30T06:34:27.263Z,88521.00
2023-03-30T06:35:27.233Z,88523.00
2023-03-30T06:36:44.863Z,88521.00
2023-03-30T06:37:28.151Z,88521.00
2023-03-30T06:38:27.130Z,88519.00
2023-03-30T06:39:27.082Z,88515.00
2023-03-30T06:40:27.066Z,88519.00
2023-03-30T06:41:27.048Z,88515.00
2023-03-30T06:42:26.973Z,88509.00
2023-03-30T06:43:26.954Z,88505.00
2023-03-30T06:44:26.902Z,88489.00
2023-03-30T06:45:26.985Z,88485.00
2023-03-30T06:46:26.832Z,88478.00
2023-03-30T06:47:26.821Z,88476.00
2023-03-30T06:48:26.840Z,88485.00
2023-03-30T06:49:26.748Z,88468.00
2023-03-30T06:50:26.833Z,88476.00
2023-03-30T06:51:26.677Z,88468.00
2023-03-30T06:52:26.670Z,88478.00
2023-03-30T06:53:26.718Z,88472.00
2023-03-30T06:54:26.611Z,88470.00
2023-03-30T06:55:26.577Z,88463.00
2023-03-30T06:56:26.546Z,88461.00
2023-03-30T06:57:26.593Z,88461.00
2023-03-30T06:58:26.477Z,88463.00
2023-03-30T06:59:26.460Z,88466.00
2023-03-30T07:00:26.504Z,88470.00
2023-03-30T07:01:26.473Z,88474.00
2023-03-30T07:02:26.430Z,88474.00
2023-03-30T07:03:26.427Z,88474.00
2023-03-30T07:04:26.374Z,88476.00
2023-03-30T07:05:26.281Z,88474.00
2023-03-30T07:06:26.302Z,88474.00
2023-03-30T07:07:26.298Z,88476.00
2023-03-30T07:08:26.226Z,88474.00
2023-03-30T07:09:26.197Z,88478.00
2023-03-30T07:10:26.334Z,88474.00
2023-03-30T07:11:26.197Z,88468.00
2023-03-30T07:12:26.224Z,88464.00
2023-03-30T07:13:26.229Z,88466.00
2023-03-30T07:14:26.226Z,88463.00
2023-03-30T07:15:26.491Z,88459.00
2023-03-30T07:16:26.276Z,88466.00
2023-03-30T07:17:27.042Z,88468.00
2023-03-30T07:18:26.316Z,88468.00
2023-03-30T07:19:26.319Z,88472.00
2023-03-30T07:20:26.481Z,88468.00
2023-03-30T07:21:26.351Z,88468.00
2023-03-30T07:22:26.400Z,88468.00
2023-03-30T07:23:26.521Z,88463.00
2023-03-30T07:24:26.458Z,88459.00
2023-03-30T07:25:26.464Z,88459.00
2023-03-30T07:26:26.491Z,88457.00
2023-03-30T07:27:26.531Z,88457.00
2023-03-30T07:28:26.530Z,88455.00
2023-03-30T07:29:26.791Z,88451.00
2023-03-30T07:30:26.524Z,88453.00
2023-03-30T07:31:26.633Z,88445.00
2023-03-30T07:32:26.625Z,88441.00
2023-03-30T07:33:26.732Z,88439.00
2023-03-30T07:34:26.577Z,88437.00
2023-03-30T07:35:26.619Z,88433.00
2023-03-30T07:36:26.666Z,88437.00
2023-03-30T07:37:26.691Z,88423.00
2023-03-30T07:38:26.719Z,88435.00
2023-03-30T07:39:26.749Z,88441.00
2023-03-30T07:40:26.833Z,88435.00
2023-03-30T07:41:26.827Z,88443.00
2023-03-30T07:42:26.854Z,88437.00
2023-03-30T07:43:26.901Z,88439.00
2023-03-30T07:44:27.011Z,88433.00
2023-03-30T07:45:26.935Z,88431.00
2023-03-30T07:46:26.998Z,88427.00
2023-03-30T07:47:26.924Z,88437.00
2023-03-30T07:48:26.943Z,88429.00
2023-03-30T07:49:26.947Z,88423.00
2023-03-30T07:50:26.984Z,88443.00
2023-03-30T07:51:28.040Z,88433.00
2023-03-30T07:52:27.114Z,88445.00
2023-03-30T07:53:27.113Z,88429.00
2023-03-30T07:54:27.170Z,88459.00
2023-03-30T07:55:27.177Z,88427.00
2023-03-30T07:56:27.198Z,88429.00
2023-03-30T07:57:27.293Z,88427.00
2023-03-30T07:58:27.268Z,88423.00
2023-03-30T07:59:27.334Z,88431.00
2023-03-30T08:00:27.362Z,88417.00
2023-03-30T08:01:27.456Z,88417.00
2023-03-30T08:02:27.518Z,88417.00
2023-03-30T08:03:27.614Z,88416.00
2023-03-30T08:04:27.619Z,88421.00
2023-03-30T08:05:27.537Z,88421.00
2023-03-30T08:06:27.567Z,88406.00
2023-03-30T08:07:27.563Z,88417.00
2023-03-30T08:08:27.552Z,88419.00
2023-03-30T08:09:27.619Z,88406.00
2023-03-30T08:10:27.628Z,88406.00
2023-03-30T08:11:27.632Z,88410.00
2023-03-30T08:12:27.679Z,88416.00
2023-03-30T08:13:27.700Z,88408.00
2023-03-30T08:14:27.705Z,88404.00
2023-03-30T08:15:27.724Z,88404.00
2023-03-30T08:16:27.703Z,88402.00
2023-03-30T08:17:27.712Z,88396.00
2023-03-30T08:18:29.138Z,88402.00
2023-03-30T08:19:27.608Z,88400.00
2023-03-30T08:20:27.688Z,88394.00
2023-03-30T08:21:27.660Z,88390.00
2023-03-30T08:22:27.684Z,88390.00
2023-03-30T08:23:27.728Z,88392.00
2023-03-30T08:24:27.779Z,88384.00
2023-03-30T08:25:27.796Z,88390.00
2023-03-30T08:26:27.855Z,88394.00
2023-03-30T08:27:27.912Z,88388.00
2023-03-30T08:28:27.926Z,88384.00
2023-03-30T08:29:27.964Z,88376.00
2023-03-30T08:30:28.002Z,88374.00
2023-03-30T08:31:28.864Z,88370.00
2023-03-30T08:32:28.130Z,88376.00
2023-03-30T08:33:28.132Z,88372.00
2023-03-30T08:34:28.178Z,88376.00
2023-03-30T08:35:28.244Z,88374.00
2023-03-30T08:36:28.240Z,88376.00
2023-03-30T08:37:28.242Z,88376.00
2023-03-30T08:38:28.203Z,88374.00
2023-03-30T08:39:28.158Z,88364.00
2023-03-30T08:40:28.143Z,88368.00
2023-03-30T08:41:28.138Z,88364.00
2023-03-30T08:42:28.127Z,88364.00
2023-03-30T08:43:28.109Z,88359.00
2023-03-30T08:44:28.121Z,88362.00
2023-03-30T08:45:28.175Z,88362.00
2023-03-30T08:46:28.215Z,88366.00
2023-03-30T08:47:28.102Z,88359.00
2023-03-30T08:48:28.089Z,88343.00
2023-03-30T08:49:28.032Z,88349.00
2023-03-30T08:50:28.060Z,88341.00
2023-03-30T08:51:28.030Z,88353.00
2023-03-30T08:52:27.992Z,88351.00
2023-03-30T08:53:27.980Z,88353.00
2023-03-30T08:54:27.959Z,88347.00
2023-03-30T08:55:27.932Z,88343.00
2023-03-30T08:56:27.923Z,88353.00
2023-03-30T08:57:27.957Z,88353.00
2023-03-30T08:58:27.899Z,88357.00
2023-03-30T08:59:27.889Z,88349.00
2023-03-30T09:00:27.836Z,88378.00
2023-03-30T09:01:27.829Z,88353.00
2023-03-30T09:02:27.835Z,88343.00
2023-03-30T09:03:27.780Z,88343.00
2023-03-30T09:04:27.747Z,88357.00
2023-03-30T09:05:27.756Z,88361.00
2023-03-30T09:06:27.703Z,88353.00
2023-03-30T09:07:27.687Z,88370.00
2023-03-30T09:08:27.650Z,88366.00
2023-03-30T09:09:27.653Z,88359.00
2023-03-30T09:10:27.643Z,88359.00
2023-03-30T09:11:27.640Z,88355.00
2023-03-30T09:12:27.688Z,88359.00
2023-03-30T09:13:27.724Z,88351.00
2023-03-30T09:14:27.699Z,88349.00
2023-03-30T09:15:28.492Z,88364.00
2023-03-30T09:16:27.838Z,88359.00
2023-03-30T09:17:28.326Z,88349.00
2023-03-30T09:18:27.730Z,88361.00
2023-03-30T09:19:27.677Z,88355.00
2023-03-30T09:20:27.781Z,88364.00
2023-03-30T09:21:27.588Z,88368.00
2023-03-30T09:22:27.495Z,88362.00
2023-03-30T09:23:27.496Z,88357.00
2023-03-30T09:24:27.492Z,88364.00
2023-03-30T09:25:27.428Z,88355.00
2023-03-30T09:26:27.412Z,88353.00
2023-03-30T09:27:27.401Z,88362.00
2023-03-30T09:28:28.324Z,88355.00
2023-03-30T09:29:27.469Z,88357.00
2023-03-30T09:30:27.336Z,88349.00
2023-03-30T09:31:27.347Z,88345.00
2023-03-30T09:32:27.321Z,88347.00
2023-03-30T09:33:27.309Z,88343.00
2023-03-30T09:34:27.328Z,88341.00
2023-03-30T09:35:27.314Z,88337.00
2023-03-30T09:36:27.408Z,88337.00
2023-03-30T09:37:27.460Z,88353.00
2023-03-30T09:38:27.428Z,88347.00
2023-03-30T09:39:27.440Z,88345.00
2023-03-30T09:40:27.436Z,88351.00
2023-03-30T09:41:27.425Z,88357.00
2023-03-30T09:42:27.463Z,88351.00
2023-03-30T09:43:27.489Z,88359.00
2023-03-30T09:44:27.506Z,88355.00
2023-03-30T09:45:27.598Z,88357.00
2023-03-30T09:46:27.665Z,88355.00
2023-03-30T09:47:27.633Z,88361.00
2023-03-30T09:48:27.543Z,88357.00
2023-03-30T09:49:27.577Z,88355.00
2023-03-30T09:50:27.607Z,88357.00
2023-03-30T09:51:29.223Z,88357.00
2023-03-30T09:52:27.583Z,88353.00
2023-03-30T09:53:27.580Z,88364.00
2023-03-30T09:54:27.580Z,88357.00
2023-03-30T09:55:27.524Z,88357.00
2023-03-30T09:56:27.517Z,88359.00
2023-03-30T09:57:27.526Z,88355.00
2023-03-30T09:58:27.481Z,88359.00
2023-03-30T09:59:27.512Z,88353.00
2023-03-30T10:00:27.464Z,88351.00
2023-03-30T10:01:27.492Z,88349.00
2023-03-30T10:02:27.479Z,88339.00
2023-03-30T10:03:27.609Z,88341.00
2023-03-30T10:04:27.379Z,88339.00
2023-03-30T10:05:27.356Z,88345.00
2023-03-30T10:06:27.337Z,88351.00
2023-03-30T10:07:27.332Z,88341.00
2023-03-30T10:08:27.300Z,88341.00
2023-03-30T10:09:27.268Z,88339.00
2023-03-30T10:10:27.266Z,88339.00
2023-03-30T10:11:27.233Z,88335.00
2023-03-30T10:12:27.231Z,88329.00
2023-03-30T10:13:27.202Z,88329.00
2023-03-30T10:14:28.688Z,88327.00
2023-03-30T10:15:27.178Z,88327.00
2023-03-30T10:16:27.207Z,88321.00
2023-03-30T10:17:27.276Z,88323.00
2023-03-30T10:18:27.109Z,88327.00
2023-03-30T10:19:27.081Z,88331.00
2023-03-30T10:20:27.086Z,88319.00
2023-03-30T10:21:27.060Z,88325.00
2023-03-30T10:22:27.014Z,88325.00
2023-03-30T10:23:27.019Z,88319.00
2023-03-30T10:24:26.984Z,88317.00
2023-03-30T10:25:26.959Z,88317.00
2023-03-30T10:26:26.957Z,88317.00
2023-03-30T10:27:26.928Z,88317.00
2023-03-30T10:28:26.913Z,88306.00
2023-03-30T10:29:26.856Z,88306.00
2023-03-30T10:30:26.818Z,88304.00
2023-03-30T10:31:28.079Z,88307.00
2023-03-30T10:32:26.805Z,88309.00
2023-03-30T10:33:26.758Z,88304.00
2023-03-30T10:34:26.830Z,88307.00
2023-03-30T10:35:26.744Z,88302.00
2023-03-30T10:36:26.771Z,88313.00
2023-03-30T10:37:26.701Z,88302.00
2023-03-30T10:38:26.763Z,88307.00
2023-03-30T10:39:26.659Z,88304.00
2023-03-30T10:40:26.648Z,88306.00
2023-03-30T10:41:26.612Z,88313.00
2023-03-30T10:42:26.599Z,88315.00
2023-03-30T10:43:26.762Z,88304.00
2023-03-30T10:44:26.579Z,88321.00
2023-03-30T10:45:26.581Z,88302.00
2023-03-30T10:46:26.697Z,88294.00
2023-03-30T10:47:26.686Z,88288.00
2023-03-30T10:48:26.524Z,88282.00
2023-03-30T10:49:26.481Z,88282.00
2023-03-30T10:50:26.460Z,88290.00
2023-03-30T10:51:26.442Z,88286.00
2023-03-30T10:52:26.437Z,88282.00
2023-03-30T10:53:26.382Z,88278.00
2023-03-30T10:54:26.358Z,88278.00
2023-03-30T10:55:26.363Z,88276.00
2023-03-30T10:56:26.326Z,88274.00
2023-03-30T10:57:26.389Z,88268.00
2023-03-30T10:58:26.313Z,88264.00
2023-03-30T10:59:26.259Z,88258.00
2023-03-30T11:00:26.241Z,88262.00
2023-03-30T11:01:26.245Z,88258.00
2023-03-30T11:02:26.276Z,88258.00
2023-03-30T11:03:26.277Z,88243.00
2023-03-30T11:04:26.266Z,88243.00
2023-03-30T11:05:26.120Z,88237.00
2023-03-30T11:06:26.088Z,88237.00
2023-03-30T11:07:26.084Z,88243.00
2023-03-30T11:08:26.026Z,88239.00
2023-03-30T11:09:26.063Z,88237.00
2023-03-30T11:10:25.985Z,88233.00
2023-03-30T11:11:25.956Z,88231.00
2023-03-30T11:12:25.996Z,88231.00
2023-03-30T11:13:25.923Z,88222.00
2023-03-30T11:14:25.879Z,88218.00
2023-03-30T11:15:25.867Z,88216.00
2023-03-30T11:16:25.869Z,88212.00
2023-03-30T11:17:25.844Z,88229.00
2023-03-30T11:18:25.777Z,88220.00
2023-03-30T11:19:25.782Z,88220.00
2023-03-30T11:20:25.742Z,88222.00
2023-03-30T11:21:25.713Z,88220.00
2023-03-30T11:22:25.716Z,88220.00
2023-03-30T11:23:25.747Z,88222.00
2023-03-30T11:24:25.721Z,88218.00
2023-03-30T11:25:25.746Z,88212.00
2023-03-30T11:26:25.669Z,88214.00
2023-03-30T11:27:25.722Z,88218.00
2023-03-30T11:28:25.682Z,88210.00
2023-03-30T11:29:25.714Z,88208.00
2023-03-30T11:30:25.743Z,88212.00
2023-03-30T11:31:25.684Z,88214.00
2023-03-30T11:32:25.762Z,88212.00
2023-03-30T11:33:25.704Z,88214.00
2023-03-30T11:34:25.840Z,88208.00
2023-03-30T11:35:25.756Z,88206.00
2023-03-30T11:36:25.832Z,88194.00
2023-03-30T11:37:25.897Z,88191.00
2023-03-30T11:38:25.877Z,88191.00
2023-03-30T11:39:32.248Z,88191.00
2023-03-30T11:40:27.095Z,88192.00
2023-03-30T11:41:25.860Z,88194.00
2023-03-30T11:42:25.839Z,88200.00
2023-03-30T11:43:25.822Z,88194.00
2023-03-30T11:44:25.787Z,88196.00